createdAt,value
2017-12-12T00:00:43.693Z,0.00
2017-12-12T00:01:43.787Z,0.00
2017-12-12T00:02:43.618Z,0.00
2017-12-12T00:03:43.700Z,0.00
2017-12-12T00:04:43.560Z,0.00
2017-12-12T00:05:43.728Z,0.00
2017-12-12T00:06:43.487Z,0.00
2017-12-12T00:07:43.631Z,0.00
2017-12-12T00:08:43.419Z,0.00
2017-12-12T00:09:43.453Z,0.00
2017-12-12T00:10:43.349Z,0.00
2017-12-12T00:11:43.467Z,0.00
2017-12-12T00:12:43.281Z,0.00
2017-12-12T00:13:43.254Z,0.00
2017-12-12T00:14:43.214Z,0.00
2017-12-12T00:15:46.104Z,0.00
2017-12-12T00:16:43.150Z,0.00
2017-12-12T00:17:44.493Z,0.00
2017-12-12T00:18:43.074Z,0.00
2017-12-12T00:19:43.045Z,0.00
2017-12-12T00:20:43.016Z,0.00
2017-12-12T00:21:43.013Z,0.00
2017-12-12T00:22:42.942Z,0.00
2017-12-12T00:23:43.026Z,0.00
2017-12-12T00:24:42.878Z,0.00
2017-12-12T00:25:42.951Z,0.00
2017-12-12T00:26:42.804Z,0.00
2017-12-12T00:27:42.847Z,0.00
2017-12-12T00:28:42.737Z,0.00
2017-12-12T00:29:42.758Z,0.00
2017-12-12T00:30:42.666Z,0.00
2017-12-12T00:31:42.670Z,0.00
2017-12-12T00:32:42.601Z,0.00
2017-12-12T00:33:42.683Z,0.00
2017-12-12T00:34:42.532Z,0.00
2017-12-12T00:35:42.597Z,0.00
2017-12-12T00:36:42.462Z,0.00
2017-12-12T00:37:42.508Z,0.00
2017-12-12T00:38:42.390Z,0.00
2017-12-12T00:39:42.417Z,0.00
2017-12-12T00:40:42.328Z,0.00
2017-12-12T00:41:42.329Z,0.00
2017-12-12T00:42:42.260Z,0.00
2017-12-12T00:43:42.343Z,0.00
2017-12-12T00:44:42.190Z,0.00
2017-12-12T00:45:42.252Z,0.00
2017-12-12T00:46:42.119Z,0.00
2017-12-12T00:47:42.164Z,0.00
2017-12-12T00:48:42.051Z,0.00
2017-12-12T00:49:42.077Z,0.00
2017-12-12T00:50:41.981Z,0.00
2017-12-12T00:51:41.988Z,0.00
2017-12-12T00:52:41.915Z,0.00
2017-12-12T00:53:42.001Z,0.00
2017-12-12T00:54:41.874Z,0.00
2017-12-12T00:55:41.911Z,0.00
2017-12-12T00:56:41.784Z,0.00
2017-12-12T00:57:41.823Z,0.00
2017-12-12T00:58:41.708Z,0.00
2017-12-12T00:59:41.736Z,0.00
2017-12-12T01:00:41.645Z,0.00
2017-12-12T01:01:41.644Z,0.00
2017-12-12T01:02:41.574Z,0.00
2017-12-12T01:03:41.660Z,0.00
2017-12-12T01:04:41.515Z,0.00
2017-12-12T01:05:41.569Z,0.00
2017-12-12T01:06:41.437Z,0.00
2017-12-12T01:07:41.482Z,0.00
2017-12-12T01:08:41.366Z,0.00
2017-12-12T01:09:41.391Z,0.00
2017-12-12T01:10:41.305Z,0.00
2017-12-12T01:11:41.304Z,0.00
2017-12-12T01:12:41.244Z,0.00
2017-12-12T01:13:41.215Z,0.00
2017-12-12T01:14:41.164Z,0.00
2017-12-12T01:15:41.227Z,0.00
2017-12-12T01:16:41.095Z,0.00
2017-12-12T01:17:41.139Z,0.00
2017-12-12T01:18:41.029Z,0.00
2017-12-12T01:19:41.049Z,0.00
2017-12-12T01:20:40.964Z,0.00
2017-12-12T01:21:40.964Z,0.00
2017-12-12T01:22:40.890Z,0.00
2017-12-12T01:23:40.876Z,0.00
2017-12-12T01:24:40.827Z,0.00
2017-12-12T01:25:40.885Z,0.00
2017-12-12T01:26:40.758Z,0.00
2017-12-12T01:27:40.797Z,0.00
2017-12-12T01:28:40.721Z,0.00
2017-12-12T01:29:40.709Z,0.00
2017-12-12T01:30:40.622Z,0.00
2017-12-12T01:31:40.618Z,0.00
2017-12-12T01:32:40.551Z,0.00
2017-12-12T01:33:40.635Z,0.00
2017-12-12T01:34:40.484Z,0.00
2017-12-12T01:35:40.548Z,0.00
2017-12-12T01:36:40.420Z,0.00
2017-12-12T01:37:40.454Z,0.00
2017-12-12T01:38:40.351Z,0.00
2017-12-12T01:39:40.372Z,0.00
2017-12-12T01:40:40.285Z,0.00
2017-12-12T01:41:40.288Z,0.00
2017-12-12T01:42:40.217Z,0.00
2017-12-12T01:43:40.316Z,0.00
2017-12-12T01:44:40.147Z,0.00
2017-12-12T01:45:40.207Z,0.00
2017-12-12T01:46:40.077Z,0.00
2017-12-12T01:47:40.112Z,0.00
2017-12-12T01:48:40.011Z,0.00
2017-12-12T01:49:40.028Z,0.00
2017-12-12T01:50:39.941Z,0.00
2017-12-12T01:51:39.965Z,0.00
2017-12-12T01:52:39.870Z,0.00
2017-12-12T01:53:39.854Z,0.00
2017-12-12T01:54:39.810Z,0.00
2017-12-12T01:55:39.867Z,0.00
2017-12-12T01:56:39.735Z,0.00
2017-12-12T01:57:39.775Z,0.00
2017-12-12T01:58:39.670Z,0.00
2017-12-12T01:59:39.683Z,0.00
2017-12-12T02:00:39.604Z,0.00
2017-12-12T02:01:39.605Z,0.00
2017-12-12T02:02:39.530Z,0.00
2017-12-12T02:03:39.508Z,0.00
2017-12-12T02:04:39.471Z,0.00
2017-12-12T02:05:39.525Z,0.00
2017-12-12T02:06:39.396Z,0.00
2017-12-12T02:07:39.450Z,0.00
2017-12-12T02:08:39.329Z,0.00
2017-12-12T02:09:39.351Z,0.00
2017-12-12T02:10:39.261Z,0.00
2017-12-12T02:11:39.264Z,0.00
2017-12-12T02:12:39.185Z,0.00
2017-12-12T02:13:39.169Z,0.00
2017-12-12T02:14:39.125Z,0.00
2017-12-12T02:15:39.189Z,0.00
2017-12-12T02:16:39.050Z,0.00
2017-12-12T02:17:39.096Z,0.00
2017-12-12T02:18:38.987Z,0.00
2017-12-12T02:19:39.006Z,0.00
2017-12-12T02:20:38.920Z,0.00
2017-12-12T02:21:38.931Z,0.00
2017-12-12T02:22:38.847Z,0.00
2017-12-12T02:23:38.844Z,0.00
2017-12-12T02:24:38.785Z,0.00
2017-12-12T02:25:38.843Z,0.00
2017-12-12T02:26:38.710Z,0.00
2017-12-12T02:27:38.754Z,0.00
2017-12-12T02:28:38.645Z,0.00
2017-12-12T02:29:38.665Z,0.00
2017-12-12T02:30:38.576Z,0.00
2017-12-12T02:31:38.576Z,0.00
2017-12-12T02:32:38.506Z,0.00
2017-12-12T02:33:38.497Z,0.00
2017-12-12T02:34:38.440Z,0.00
2017-12-12T02:35:38.497Z,0.00
2017-12-12T02:36:38.372Z,0.00
2017-12-12T02:37:38.413Z,0.00
2017-12-12T02:38:38.313Z,0.00
2017-12-12T02:39:38.322Z,0.00
2017-12-12T02:40:38.267Z,0.00
2017-12-12T02:41:52.877Z,0.00
2017-12-12T02:42:38.174Z,0.00
2017-12-12T02:43:38.144Z,0.00
2017-12-12T02:44:38.102Z,0.00
2017-12-12T02:45:38.161Z,0.00
2017-12-12T02:46:38.032Z,0.00
2017-12-12T02:47:38.073Z,0.00
2017-12-12T02:48:37.966Z,0.00
2017-12-12T02:49:37.986Z,0.00
2017-12-12T02:50:37.899Z,0.00
2017-12-12T02:51:37.896Z,0.00
2017-12-12T02:52:37.834Z,0.00
2017-12-12T02:53:37.909Z,0.00
2017-12-12T02:54:37.765Z,0.00
2017-12-12T02:55:37.820Z,0.00
2017-12-12T02:56:37.695Z,0.00
2017-12-12T02:57:37.733Z,0.00
2017-12-12T02:58:37.627Z,0.00
2017-12-12T02:59:37.647Z,0.00
2017-12-12T03:00:37.560Z,0.00
2017-12-12T03:01:37.555Z,0.00
2017-12-12T03:02:37.489Z,0.00
2017-12-12T03:03:37.569Z,0.00
2017-12-12T03:04:37.424Z,0.00
2017-12-12T03:05:37.480Z,0.00
2017-12-12T03:06:37.357Z,0.00
2017-12-12T03:07:37.386Z,0.00
2017-12-12T03:08:37.289Z,0.00
2017-12-12T03:09:37.303Z,0.00
2017-12-12T03:10:37.219Z,0.00
2017-12-12T03:11:37.210Z,0.00
2017-12-12T03:12:37.157Z,0.00
2017-12-12T03:13:37.226Z,0.00
2017-12-12T03:14:37.085Z,0.00
2017-12-12T03:15:37.138Z,0.00
2017-12-12T03:16:37.016Z,0.00
2017-12-12T03:17:37.066Z,0.00
2017-12-12T03:18:36.949Z,0.00
2017-12-12T03:19:36.960Z,0.00
2017-12-12T03:20:36.882Z,0.00
2017-12-12T03:21:36.872Z,0.00
2017-12-12T03:22:36.817Z,0.00
2017-12-12T03:23:36.880Z,0.00
2017-12-12T03:24:36.747Z,0.00
2017-12-12T03:25:36.797Z,0.00
2017-12-12T03:26:36.705Z,0.00
2017-12-12T03:27:36.712Z,0.00
2017-12-12T03:28:36.611Z,0.00
2017-12-12T03:29:36.624Z,0.00
2017-12-12T03:30:36.543Z,0.00
2017-12-12T03:31:36.531Z,0.00
2017-12-12T03:32:36.476Z,0.00
2017-12-12T03:33:36.548Z,0.00
2017-12-12T03:34:36.407Z,0.00
2017-12-12T03:35:36.457Z,0.00
2017-12-12T03:36:36.338Z,0.00
2017-12-12T03:37:36.369Z,0.00
2017-12-12T03:38:36.272Z,0.00
2017-12-12T03:39:36.287Z,0.00
2017-12-12T03:40:36.202Z,0.00
2017-12-12T03:41:36.197Z,0.00
2017-12-12T03:42:36.135Z,0.00
2017-12-12T03:43:36.214Z,0.00
2017-12-12T03:44:36.073Z,0.00
2017-12-12T03:45:36.119Z,0.00
2017-12-12T03:46:35.999Z,0.00
2017-12-12T03:47:36.033Z,0.00
2017-12-12T03:48:35.932Z,0.00
2017-12-12T03:49:35.940Z,0.00
2017-12-12T03:50:35.865Z,0.00
2017-12-12T03:51:35.850Z,0.00
2017-12-12T03:52:35.794Z,0.00
2017-12-12T03:53:35.878Z,0.00
2017-12-12T03:54:35.721Z,0.00
2017-12-12T03:55:35.776Z,0.00
2017-12-12T03:56:35.654Z,0.00
2017-12-12T03:57:35.686Z,0.00
2017-12-12T03:58:35.585Z,0.00
2017-12-12T03:59:35.598Z,0.00
2017-12-12T04:00:35.526Z,0.00
2017-12-12T04:01:35.508Z,0.00
2017-12-12T04:02:35.451Z,0.00
2017-12-12T04:03:35.519Z,0.00
2017-12-12T04:04:35.396Z,0.00
2017-12-12T04:05:35.438Z,0.00
2017-12-12T04:06:35.319Z,0.00
2017-12-12T04:07:35.346Z,0.00
2017-12-12T04:08:35.248Z,0.00
2017-12-12T04:09:35.259Z,0.00
2017-12-12T04:10:35.182Z,0.00
2017-12-12T04:11:35.169Z,0.00
2017-12-12T04:12:35.115Z,0.00
2017-12-12T04:13:35.185Z,0.00
2017-12-12T04:14:35.046Z,0.00
2017-12-12T04:15:35.092Z,0.00
2017-12-12T04:16:34.978Z,0.00
2017-12-12T04:17:35.008Z,0.00
2017-12-12T04:18:34.913Z,0.00
2017-12-12T04:19:34.917Z,0.00
2017-12-12T04:20:34.841Z,0.00
2017-12-12T04:21:34.827Z,0.00
2017-12-12T04:22:34.779Z,0.00
2017-12-12T04:23:34.840Z,0.00
2017-12-12T04:24:34.710Z,0.00
2017-12-12T04:25:34.749Z,0.00
2017-12-12T04:26:34.640Z,0.00
2017-12-12T04:27:34.660Z,0.00
2017-12-12T04:28:34.574Z,0.00
2017-12-12T04:29:34.625Z,0.00
2017-12-12T04:30:34.501Z,0.00
2017-12-12T04:31:34.487Z,0.00
2017-12-12T04:32:34.432Z,0.00
2017-12-12T04:33:34.501Z,0.00
2017-12-12T04:34:34.361Z,0.00
2017-12-12T04:35:34.411Z,0.00
2017-12-12T04:36:34.296Z,0.00
2017-12-12T04:37:34.323Z,0.00
2017-12-12T04:38:34.230Z,0.00
2017-12-12T04:39:34.234Z,0.00
2017-12-12T04:40:34.166Z,0.00
2017-12-12T04:41:34.145Z,0.00
2017-12-12T04:42:34.093Z,0.00
2017-12-12T04:43:34.157Z,0.00
2017-12-12T04:44:34.027Z,0.00
2017-12-12T04:45:34.069Z,0.00
2017-12-12T04:46:33.957Z,0.00
2017-12-12T04:47:33.981Z,0.00
2017-12-12T04:48:33.888Z,0.00
2017-12-12T04:49:33.890Z,0.00
2017-12-12T04:50:33.826Z,0.00
2017-12-12T04:51:33.805Z,0.00
2017-12-12T04:52:33.754Z,0.00
2017-12-12T04:53:33.816Z,0.00
2017-12-12T04:54:33.687Z,0.00
2017-12-12T04:55:33.728Z,0.00
2017-12-12T04:56:33.618Z,0.00
2017-12-12T04:57:33.642Z,0.00
2017-12-12T04:58:33.547Z,0.00
2017-12-12T04:59:33.556Z,0.00
2017-12-12T05:00:33.487Z,0.00
2017-12-12T05:01:33.467Z,0.00
2017-12-12T05:02:33.410Z,0.00
2017-12-12T05:03:33.477Z,0.00
2017-12-12T05:04:33.344Z,0.00
2017-12-12T05:05:33.390Z,0.00
2017-12-12T05:06:33.275Z,0.00
2017-12-12T05:07:33.300Z,0.00
2017-12-12T05:08:33.205Z,0.00
2017-12-12T05:09:34.236Z,0.00
2017-12-12T05:10:33.148Z,0.00
2017-12-12T05:11:33.124Z,0.00
2017-12-12T05:12:33.068Z,0.00
2017-12-12T05:13:33.138Z,0.00
2017-12-12T05:14:33.002Z,0.00
2017-12-12T05:15:33.050Z,0.00
2017-12-12T05:16:32.937Z,0.00
2017-12-12T05:17:32.959Z,0.00
2017-12-12T05:18:32.874Z,0.00
2017-12-12T05:19:32.874Z,0.00
2017-12-12T05:20:32.800Z,0.00
2017-12-12T05:21:32.783Z,0.00
2017-12-12T05:22:32.726Z,0.00
2017-12-12T05:23:32.796Z,0.00
2017-12-12T05:24:32.660Z,0.00
2017-12-12T05:25:32.708Z,0.00
2017-12-12T05:26:32.595Z,0.00
2017-12-12T05:27:32.618Z,0.00
2017-12-12T05:28:32.528Z,0.00
2017-12-12T05:29:32.533Z,0.00
2017-12-12T05:30:32.456Z,0.00
2017-12-12T05:31:32.483Z,0.00
2017-12-12T05:32:32.389Z,0.00
2017-12-12T05:33:32.457Z,0.00
2017-12-12T05:34:32.319Z,0.00
2017-12-12T05:35:32.363Z,0.00
2017-12-12T05:36:32.256Z,0.00
2017-12-12T05:37:32.278Z,0.00
2017-12-12T05:38:32.186Z,0.00
2017-12-12T05:39:32.192Z,0.00
2017-12-12T05:40:32.116Z,0.00
2017-12-12T05:41:32.096Z,0.00
2017-12-12T05:42:32.051Z,0.00
2017-12-12T05:43:32.113Z,0.00
2017-12-12T05:44:31.978Z,0.00
2017-12-12T05:45:32.023Z,0.00
2017-12-12T05:46:31.916Z,0.00
2017-12-12T05:47:31.937Z,0.00
2017-12-12T05:48:31.846Z,0.00
2017-12-12T05:49:31.847Z,0.00
2017-12-12T05:50:31.778Z,0.00
2017-12-12T05:51:31.758Z,0.00
2017-12-12T05:52:31.712Z,0.00
2017-12-12T05:53:31.782Z,0.00
2017-12-12T05:54:31.638Z,0.00
2017-12-12T05:55:31.691Z,0.00
2017-12-12T05:56:31.574Z,0.00
2017-12-12T05:57:31.595Z,0.00
2017-12-12T05:58:31.508Z,0.00
2017-12-12T05:59:31.508Z,0.00
2017-12-12T06:00:31.437Z,0.00
2017-12-12T06:01:31.418Z,0.00
2017-12-12T06:02:31.367Z,0.00
2017-12-12T06:03:31.431Z,0.00
2017-12-12T06:04:31.305Z,0.00
2017-12-12T06:05:31.343Z,0.00
2017-12-12T06:06:31.234Z,0.00
2017-12-12T06:07:31.256Z,0.00
2017-12-12T06:08:31.163Z,0.00
2017-12-12T06:09:31.165Z,0.00
2017-12-12T06:10:31.101Z,0.00
2017-12-12T06:11:31.079Z,0.00
2017-12-12T06:12:31.035Z,0.00
2017-12-12T06:13:31.094Z,0.00
2017-12-12T06:14:30.969Z,0.00
2017-12-12T06:15:31.003Z,0.00
2017-12-12T06:16:30.901Z,0.00
2017-12-12T06:17:30.917Z,0.00
2017-12-12T06:18:30.824Z,0.00
2017-12-12T06:19:30.828Z,0.00
2017-12-12T06:20:30.761Z,0.00
2017-12-12T06:21:30.849Z,0.00
2017-12-12T06:22:30.700Z,0.00
2017-12-12T06:23:30.761Z,0.00
2017-12-12T06:24:30.625Z,0.00
2017-12-12T06:25:30.662Z,0.00
2017-12-12T06:26:30.553Z,0.00
2017-12-12T06:27:30.578Z,0.00
2017-12-12T06:28:30.494Z,0.00
2017-12-12T06:29:30.526Z,0.00
2017-12-12T06:30:30.423Z,0.00
2017-12-12T06:31:30.496Z,0.00
2017-12-12T06:32:30.353Z,0.00
2017-12-12T06:33:30.411Z,0.00
2017-12-12T06:34:30.284Z,0.00
2017-12-12T06:35:30.321Z,0.00
2017-12-12T06:36:30.215Z,0.00
2017-12-12T06:37:30.233Z,0.00
2017-12-12T06:38:30.149Z,0.00
2017-12-12T06:39:30.144Z,0.00
2017-12-12T06:40:30.082Z,0.00
2017-12-12T06:41:30.154Z,0.00
2017-12-12T06:42:30.011Z,0.00
2017-12-12T06:43:30.067Z,0.00
2017-12-12T06:44:29.989Z,0.00
2017-12-12T06:45:29.982Z,0.00
2017-12-12T06:46:29.882Z,0.00
2017-12-12T06:47:29.890Z,0.00
2017-12-12T06:48:29.808Z,0.00
2017-12-12T06:49:29.800Z,0.00
2017-12-12T06:50:29.741Z,0.00
2017-12-12T06:51:29.816Z,0.00
2017-12-12T06:52:29.676Z,0.00
2017-12-12T06:53:29.723Z,0.00
2017-12-12T06:54:29.609Z,0.00
2017-12-12T06:55:29.639Z,0.00
2017-12-12T06:56:29.539Z,0.00
2017-12-12T06:57:29.555Z,0.00
2017-12-12T06:58:29.475Z,0.00
2017-12-12T06:59:29.464Z,0.00
2017-12-12T07:00:29.409Z,0.00
2017-12-12T07:01:29.478Z,0.00
2017-12-12T07:02:29.339Z,0.00
2017-12-12T07:03:29.391Z,0.00
2017-12-12T07:04:29.273Z,0.00
2017-12-12T07:05:29.305Z,0.00
2017-12-12T07:06:29.209Z,0.00
2017-12-12T07:07:29.212Z,0.00
2017-12-12T07:08:29.144Z,0.00
2017-12-12T07:09:29.128Z,0.00
2017-12-12T07:10:29.072Z,0.00
2017-12-12T07:11:29.038Z,0.00
2017-12-12T07:12:29.149Z,0.00
2017-12-12T07:13:28.964Z,0.00
2017-12-12T07:14:29.058Z,0.00
2017-12-12T07:15:28.901Z,0.00
2017-12-12T07:16:28.872Z,0.00
2017-12-12T07:17:28.831Z,0.00
2017-12-12T07:18:28.878Z,0.00
2017-12-12T07:19:28.760Z,0.00
2017-12-12T07:20:28.895Z,0.00
2017-12-12T07:21:28.697Z,0.00
2017-12-12T07:22:28.805Z,0.00
2017-12-12T07:23:28.627Z,0.00
2017-12-12T07:24:28.717Z,0.00
2017-12-12T07:25:28.564Z,0.00
2017-12-12T07:26:28.627Z,0.00
2017-12-12T07:27:28.498Z,0.00
2017-12-12T07:28:28.641Z,0.00
2017-12-12T07:29:28.426Z,0.00
2017-12-12T07:30:28.553Z,0.00
2017-12-12T07:31:28.367Z,0.00
2017-12-12T07:32:28.464Z,0.00
2017-12-12T07:33:28.295Z,0.00
2017-12-12T07:34:28.376Z,0.00
2017-12-12T07:35:28.240Z,0.00
2017-12-12T07:36:28.291Z,0.00
2017-12-12T07:37:28.154Z,0.00
2017-12-12T07:38:28.300Z,0.00
2017-12-12T07:39:28.086Z,0.00
2017-12-12T07:40:28.215Z,0.00
2017-12-12T07:41:28.024Z,0.00
2017-12-12T07:42:28.122Z,0.00
2017-12-12T07:43:27.949Z,5.63
2017-12-12T07:44:28.044Z,5.63
2017-12-12T07:45:27.888Z,5.63
2017-12-12T07:46:27.944Z,5.63
2017-12-12T07:47:27.838Z,5.63
2017-12-12T07:48:27.958Z,5.63
2017-12-12T07:49:27.761Z,5.63
2017-12-12T07:50:27.868Z,5.63
2017-12-12T07:51:27.689Z,5.63
2017-12-12T07:52:27.794Z,5.63
2017-12-12T07:53:27.616Z,5.63
2017-12-12T07:54:27.699Z,5.63
2017-12-12T07:55:27.547Z,5.63
2017-12-12T07:56:27.629Z,5.63
2017-12-12T07:57:27.495Z,5.63
2017-12-12T07:58:27.528Z,5.63
2017-12-12T07:59:27.417Z,5.63
2017-12-12T08:00:27.509Z,11.25
2017-12-12T08:01:27.341Z,11.25
2017-12-12T08:02:27.445Z,11.25
2017-12-12T08:03:27.288Z,16.88
2017-12-12T08:04:27.350Z,16.88
2017-12-12T08:05:27.217Z,22.50
2017-12-12T08:06:27.365Z,22.50
2017-12-12T08:07:27.143Z,22.50
2017-12-12T08:08:27.281Z,28.13
2017-12-12T08:09:27.074Z,28.13
2017-12-12T08:10:27.184Z,22.50
2017-12-12T08:11:27.010Z,22.50
2017-12-12T08:12:27.201Z,16.88
2017-12-12T08:13:26.946Z,16.88
2017-12-12T08:14:27.046Z,16.88
2017-12-12T08:15:26.888Z,16.88
2017-12-12T08:16:27.025Z,16.88
2017-12-12T08:17:26.838Z,16.88
2017-12-12T08:18:26.937Z,16.88
2017-12-12T08:19:26.755Z,16.88
2017-12-12T08:20:26.847Z,22.50
2017-12-12T08:21:26.824Z,22.50
2017-12-12T08:22:26.864Z,28.13
2017-12-12T08:23:26.606Z,33.75
2017-12-12T08:24:26.794Z,33.75
2017-12-12T08:25:26.537Z,33.75
2017-12-12T08:26:26.684Z,33.75
2017-12-12T08:27:26.483Z,39.38
2017-12-12T08:28:26.591Z,39.38
2017-12-12T08:29:26.402Z,45.00
2017-12-12T08:30:26.506Z,45.00
2017-12-12T08:31:26.337Z,45.00
2017-12-12T08:32:26.414Z,45.00
2017-12-12T08:33:26.271Z,39.38
2017-12-12T08:34:26.327Z,39.38
2017-12-12T08:35:26.201Z,39.38
2017-12-12T08:36:26.237Z,39.38
2017-12-12T08:37:26.136Z,33.75
2017-12-12T08:38:26.148Z,33.75
2017-12-12T08:39:26.067Z,33.75
2017-12-12T08:40:26.075Z,33.75
2017-12-12T08:41:25.999Z,33.75
2017-12-12T08:42:25.971Z,39.38
2017-12-12T08:43:27.649Z,39.38
2017-12-12T08:44:25.895Z,39.38
2017-12-12T08:45:25.993Z,56.25
2017-12-12T08:46:25.827Z,61.88
2017-12-12T08:47:25.904Z,39.38
2017-12-12T08:48:25.763Z,28.13
2017-12-12T08:49:25.816Z,28.13
2017-12-12T08:50:25.701Z,28.13
2017-12-12T08:51:25.737Z,28.13
2017-12-12T08:52:25.628Z,28.13
2017-12-12T08:53:25.640Z,28.13
2017-12-12T08:54:25.557Z,33.75
2017-12-12T08:55:25.550Z,39.38
2017-12-12T08:56:25.495Z,45.00
2017-12-12T08:57:25.566Z,45.00
2017-12-12T08:58:25.422Z,45.00
2017-12-12T08:59:25.477Z,39.38
2017-12-12T09:00:25.363Z,28.13
2017-12-12T09:01:25.383Z,28.13
2017-12-12T09:02:25.286Z,22.50
2017-12-12T09:03:25.299Z,22.50
2017-12-12T09:04:25.228Z,16.88
2017-12-12T09:05:25.217Z,16.88
2017-12-12T09:06:25.160Z,11.25
2017-12-12T09:07:25.225Z,5.63
2017-12-12T09:08:25.090Z,5.63
2017-12-12T09:09:25.143Z,5.63
2017-12-12T09:10:25.023Z,5.63
2017-12-12T09:11:25.049Z,5.63
2017-12-12T09:12:24.954Z,11.25
2017-12-12T09:13:24.961Z,11.25
2017-12-12T09:14:24.887Z,11.25
2017-12-12T09:15:24.871Z,16.88
2017-12-12T09:16:24.820Z,16.88
2017-12-12T09:17:24.886Z,16.88
2017-12-12T09:18:24.753Z,22.50
2017-12-12T09:19:24.795Z,22.50
2017-12-12T09:20:24.687Z,22.50
2017-12-12T09:21:24.709Z,22.50
2017-12-12T09:22:24.618Z,28.13
2017-12-12T09:23:24.619Z,28.13
2017-12-12T09:24:24.546Z,28.13
2017-12-12T09:25:24.528Z,28.13
2017-12-12T09:26:24.479Z,28.13
2017-12-12T09:27:24.547Z,28.13
2017-12-12T09:28:24.414Z,33.75
2017-12-12T09:29:24.454Z,33.75
2017-12-12T09:30:24.347Z,33.75
2017-12-12T09:31:24.363Z,39.38
2017-12-12T09:32:24.279Z,39.38
2017-12-12T09:33:24.276Z,39.38
2017-12-12T09:34:24.211Z,45.00
2017-12-12T09:35:24.289Z,50.63
2017-12-12T09:36:24.147Z,50.63
2017-12-12T09:37:24.203Z,50.63
2017-12-12T09:38:24.208Z,39.38
2017-12-12T09:39:24.057Z,33.75
2017-12-12T09:40:24.119Z,22.50
2017-12-12T09:41:23.970Z,22.50
2017-12-12T09:42:24.070Z,22.50
2017-12-12T09:43:23.912Z,22.50
2017-12-12T09:44:23.939Z,22.50
2017-12-12T09:45:23.841Z,28.13
2017-12-12T09:46:23.955Z,28.13
2017-12-12T09:47:23.773Z,33.75
2017-12-12T09:48:23.866Z,33.75
2017-12-12T09:49:23.708Z,39.38
2017-12-12T09:50:23.778Z,39.38
2017-12-12T09:51:23.638Z,39.38
2017-12-12T09:52:23.687Z,33.75
2017-12-12T09:53:23.577Z,33.75
2017-12-12T09:54:23.705Z,33.75
2017-12-12T09:55:23.500Z,39.38
2017-12-12T09:56:23.613Z,39.38
2017-12-12T09:57:23.434Z,39.38
2017-12-12T09:58:23.524Z,39.38
2017-12-12T09:59:23.371Z,45.00
2017-12-12T10:00:23.435Z,50.63
2017-12-12T10:01:23.299Z,56.25
2017-12-12T10:02:23.347Z,50.63
2017-12-12T10:03:23.231Z,50.63
2017-12-12T10:04:23.367Z,45.00
2017-12-12T10:05:23.162Z,45.00
2017-12-12T10:06:23.274Z,39.38
2017-12-12T10:07:23.097Z,39.38
2017-12-12T10:08:23.185Z,45.00
2017-12-12T10:09:23.032Z,45.00
2017-12-12T10:10:23.094Z,50.63
2017-12-12T10:11:22.964Z,56.25
2017-12-12T10:12:23.119Z,61.88
2017-12-12T10:13:22.907Z,73.13
2017-12-12T10:14:23.032Z,84.38
2017-12-12T10:15:22.835Z,84.38
2017-12-12T10:16:22.932Z,95.63
2017-12-12T10:17:22.762Z,112.50
2017-12-12T10:18:22.781Z,118.13
2017-12-12T10:19:22.697Z,95.63
2017-12-12T10:20:22.775Z,78.75
2017-12-12T10:21:22.628Z,73.13
2017-12-12T10:22:22.781Z,67.50
2017-12-12T10:23:22.559Z,56.25
2017-12-12T10:24:22.627Z,50.63
2017-12-12T10:25:22.535Z,39.38
2017-12-12T10:26:22.491Z,39.38
2017-12-12T10:27:22.428Z,45.00
2017-12-12T10:28:22.504Z,39.38
2017-12-12T10:29:22.358Z,33.75
2017-12-12T10:30:22.436Z,33.75
2017-12-12T10:31:22.287Z,33.75
2017-12-12T10:32:22.349Z,28.13
2017-12-12T10:33:22.226Z,28.13
2017-12-12T10:34:22.260Z,28.13
2017-12-12T10:35:22.162Z,39.38
2017-12-12T10:36:22.169Z,33.75
2017-12-12T10:37:22.093Z,33.75
2017-12-12T10:38:22.166Z,33.75
2017-12-12T10:39:22.026Z,39.38
2017-12-12T10:40:22.189Z,39.38
2017-12-12T10:41:21.960Z,45.00
2017-12-12T10:42:22.090Z,50.63
2017-12-12T10:43:21.893Z,61.88
2017-12-12T10:44:22.000Z,61.88
2017-12-12T10:45:21.826Z,61.88
2017-12-12T10:46:21.820Z,73.13
2017-12-12T10:47:21.761Z,73.13
2017-12-12T10:48:21.831Z,61.88
2017-12-12T10:49:21.688Z,67.50
2017-12-12T10:50:21.739Z,67.50
2017-12-12T10:51:21.645Z,73.13
2017-12-12T10:52:21.591Z,84.38
2017-12-12T10:53:21.657Z,90.00
2017-12-12T10:54:21.527Z,90.00
2017-12-12T10:55:21.564Z,78.75
2017-12-12T10:56:21.460Z,84.38
2017-12-12T10:57:21.424Z,95.63
2017-12-12T10:58:21.483Z,90.00
2017-12-12T10:59:21.366Z,84.38
2017-12-12T11:00:21.389Z,90.00
2017-12-12T11:01:21.289Z,95.63
2017-12-12T11:02:21.308Z,112.50
2017-12-12T11:03:21.224Z,219.38
2017-12-12T11:04:21.214Z,157.50
2017-12-12T11:05:21.159Z,151.88
2017-12-12T11:06:21.223Z,123.75
2017-12-12T11:07:21.092Z,140.63
2017-12-12T11:08:21.138Z,185.63
2017-12-12T11:09:21.026Z,213.75
2017-12-12T11:10:21.046Z,225.00
2017-12-12T11:11:20.959Z,191.25
2017-12-12T11:12:20.957Z,208.13
2017-12-12T11:13:20.893Z,191.25
2017-12-12T11:14:20.967Z,180.00
2017-12-12T11:15:20.829Z,157.50
2017-12-12T11:16:20.878Z,191.25
2017-12-12T11:17:20.764Z,185.63
2017-12-12T11:18:20.788Z,151.88
2017-12-12T11:19:20.695Z,174.38
2017-12-12T11:20:20.699Z,495.00
2017-12-12T11:21:20.635Z,1237.50
2017-12-12T11:22:20.715Z,427.50
2017-12-12T11:23:20.566Z,292.50
2017-12-12T11:24:20.621Z,157.50
2017-12-12T11:25:20.499Z,129.38
2017-12-12T11:26:20.529Z,95.63
2017-12-12T11:27:20.434Z,90.00
2017-12-12T11:28:20.441Z,140.63
2017-12-12T11:29:20.370Z,106.88
2017-12-12T11:30:20.356Z,95.63
2017-12-12T11:31:20.308Z,84.38
2017-12-12T11:32:20.367Z,78.75
2017-12-12T11:33:20.240Z,112.50
2017-12-12T11:34:20.315Z,90.00
2017-12-12T11:35:20.173Z,78.75
2017-12-12T11:36:20.190Z,73.13
2017-12-12T11:37:20.114Z,67.50
2017-12-12T11:38:20.091Z,67.50
2017-12-12T11:39:20.047Z,67.50
2017-12-12T11:40:20.103Z,73.13
2017-12-12T11:41:19.981Z,61.88
2017-12-12T11:42:20.164Z,56.25
2017-12-12T11:43:19.917Z,56.25
2017-12-12T11:44:19.926Z,61.88
2017-12-12T11:45:19.851Z,61.88
2017-12-12T11:46:19.877Z,61.88
2017-12-12T11:47:19.789Z,73.13
2017-12-12T11:48:19.856Z,67.50
2017-12-12T11:49:19.719Z,73.13
2017-12-12T11:50:19.693Z,73.13
2017-12-12T11:51:19.806Z,73.13
2017-12-12T11:52:19.626Z,73.13
2017-12-12T11:53:20.638Z,73.13
2017-12-12T11:54:19.556Z,78.75
2017-12-12T11:55:19.626Z,90.00
2017-12-12T11:56:19.508Z,101.25
2017-12-12T11:57:19.538Z,101.25
2017-12-12T11:58:19.424Z,123.75
2017-12-12T11:59:19.448Z,112.50
2017-12-12T12:00:19.361Z,123.75
2017-12-12T12:01:19.463Z,123.75
2017-12-12T12:02:19.298Z,95.63
2017-12-12T12:03:19.373Z,101.25
2017-12-12T12:04:19.228Z,151.88
2017-12-12T12:05:19.286Z,106.88
2017-12-12T12:06:19.163Z,78.75
2017-12-12T12:07:19.154Z,50.63
2017-12-12T12:08:19.099Z,45.00
2017-12-12T12:09:19.212Z,33.75
2017-12-12T12:10:19.045Z,28.13
2017-12-12T12:11:19.122Z,28.13
2017-12-12T12:12:18.969Z,28.13
2017-12-12T12:13:19.035Z,33.75
2017-12-12T12:14:18.898Z,28.13
2017-12-12T12:15:18.945Z,22.50
2017-12-12T12:16:18.837Z,22.50
2017-12-12T12:17:18.957Z,22.50
2017-12-12T12:18:18.776Z,22.50
2017-12-12T12:19:18.868Z,22.50
2017-12-12T12:20:18.704Z,22.50
2017-12-12T12:21:18.780Z,28.13
2017-12-12T12:22:18.643Z,39.38
2017-12-12T12:23:18.690Z,45.00
2017-12-12T12:24:18.575Z,45.00
2017-12-12T12:25:18.601Z,39.38
2017-12-12T12:26:18.507Z,39.38
2017-12-12T12:27:18.519Z,39.38
2017-12-12T12:28:18.445Z,39.38
2017-12-12T12:29:18.424Z,39.38
2017-12-12T12:30:18.378Z,39.38
2017-12-12T12:31:18.439Z,28.13
2017-12-12T12:32:18.312Z,16.88
2017-12-12T12:33:18.367Z,22.50
2017-12-12T12:34:18.249Z,22.50
2017-12-12T12:35:18.261Z,22.50
2017-12-12T12:36:18.182Z,28.13
2017-12-12T12:37:18.174Z,28.13
2017-12-12T12:38:18.117Z,28.13
2017-12-12T12:39:18.111Z,28.13
2017-12-12T12:40:18.103Z,22.50
2017-12-12T12:41:18.019Z,22.50
2017-12-12T12:42:18.054Z,16.88
2017-12-12T12:43:17.953Z,16.88
2017-12-12T12:44:18.017Z,16.88
2017-12-12T12:45:17.888Z,16.88
2017-12-12T12:46:17.927Z,16.88
2017-12-12T12:47:17.826Z,16.88
2017-12-12T12:48:17.790Z,22.50
2017-12-12T12:49:17.759Z,33.75
2017-12-12T12:50:17.853Z,50.63
2017-12-12T12:51:17.688Z,61.88
2017-12-12T12:52:17.764Z,56.25
2017-12-12T12:53:17.626Z,56.25
2017-12-12T12:54:17.589Z,73.13
2017-12-12T12:55:17.583Z,73.13
2017-12-12T12:56:17.524Z,73.13
2017-12-12T12:57:17.592Z,67.50
2017-12-12T12:58:17.455Z,56.25
2017-12-12T12:59:17.510Z,39.38
2017-12-12T13:00:17.392Z,45.00
2017-12-12T13:01:17.422Z,50.63
2017-12-12T13:02:17.325Z,84.38
2017-12-12T13:03:17.332Z,84.38
2017-12-12T13:04:17.267Z,78.75
2017-12-12T13:05:17.339Z,106.88
2017-12-12T13:06:17.198Z,101.25